GAP234 RPVA-RPLL
Flight info
| Callsign | GAP234 |
|---|---|
| Flight time | N/A |
| Altitude | 32000 |
| Route | MALAG5R MALAG W9 AKDAP AKDAP3R |
| Aircraft | A21N/M-SDE2E3FGHIRWXY/LB1 |
Departure
| Time | 2026-05-08 04:00 |
|---|---|
| Airport | Daniel Z. Romualdez Airport (RPVA) |
Arrival
| Time | N/A |
|---|---|
| Airport | Ninoy Aquino International Airport (RPLL) |
| Time | Latitude | Longitude | Altitude | Speed | Heading |
|---|---|---|---|---|---|
| 2026-05-08 03:39 | 11.22726 | 125.02657 | 12 ft | 0 kts | 304° |
| 2026-05-08 03:42 | 11.22674 | 125.02655 | 12 ft | 0 kts | 304° |
| 2026-05-08 03:53 | 11.22667 | 125.02666 | 12 ft | 1 kts | 304° |
| 2026-05-08 03:53 | 11.22662 | 125.02673 | 12 ft | 1 kts | 283° |
| 2026-05-08 03:53 | 11.22665 | 125.02686 | 12 ft | 2 kts | 222° |
| 2026-05-08 03:53 | 11.22674 | 125.02691 | 12 ft | 1 kts | 181° |
| 2026-05-08 03:54 | 11.22681 | 125.02691 | 12 ft | 0 kts | 182° |
| 2026-05-08 03:56 | 11.22679 | 125.02691 | 12 ft | 1 kts | 182° |
| 2026-05-08 03:56 | 11.22666 | 125.02689 | 12 ft | 2 kts | 184° |
| 2026-05-08 03:56 | 11.22640 | 125.02688 | 12 ft | 4 kts | 184° |
| 2026-05-08 03:56 | 11.22603 | 125.02685 | 12 ft | 6 kts | 181° |
| 2026-05-08 03:57 | 11.22569 | 125.02708 | 12 ft | 7 kts | 110° |
| 2026-05-08 03:57 | 11.22545 | 125.02755 | 12 ft | 8 kts | 161° |
| 2026-05-08 03:57 | 11.22482 | 125.02756 | 12 ft | 9 kts | 185° |
| 2026-05-08 03:57 | 11.22409 | 125.02750 | 12 ft | 11 kts | 184° |
| 2026-05-08 03:58 | 11.22326 | 125.02744 | 12 ft | 12 kts | 184° |
| 2026-05-08 03:58 | 11.22235 | 125.02739 | 12 ft | 13 kts | 183° |
| 2026-05-08 03:58 | 11.22140 | 125.02733 | 13 ft | 14 kts | 184° |
| 2026-05-08 03:58 | 11.22038 | 125.02726 | 13 ft | 15 kts | 184° |
| 2026-05-08 03:59 | 11.21933 | 125.02720 | 13 ft | 15 kts | 183° |
| 2026-05-08 03:59 | 11.21834 | 125.02735 | 15 ft | 12 kts | 216° |
| 2026-05-08 03:59 | 11.21869 | 125.02715 | 14 ft | 9 kts | 1° |
| 2026-05-08 03:59 | 11.22061 | 125.02727 | 13 ft | 60 kts | 4° |
| 2026-05-08 04:00 | 11.22718 | 125.02770 | 12 ft | 126 kts | 4° |
| 2026-05-08 04:00 | 11.23771 | 125.02837 | 118 ft | 167 kts | 4° |
| 2026-05-08 04:00 | 11.24910 | 125.02913 | 779 ft | 165 kts | 4° |
| 2026-05-08 04:00 | 11.26039 | 125.02982 | 1439 ft | 168 kts | 3° |
| 2026-05-08 04:01 | 11.27194 | 125.03060 | 2023 ft | 167 kts | 4° |
| 2026-05-08 04:01 | 11.28393 | 125.03139 | 2330 ft | 178 kts | 2° |
| 2026-05-08 04:01 | 11.29675 | 125.03206 | 2587 ft | 192 kts | 4° |
| 2026-05-08 04:01 | 11.31037 | 125.03299 | 2919 ft | 203 kts | 4° |
| 2026-05-08 04:02 | 11.32489 | 125.03392 | 3219 ft | 217 kts | 358° |
| 2026-05-08 04:02 | 11.33960 | 125.02947 | 3495 ft | 234 kts | 328° |
| 2026-05-08 04:02 | 11.35226 | 125.01826 | 3861 ft | 250 kts | 317° |
| 2026-05-08 04:02 | 11.36493 | 125.00561 | 4278 ft | 263 kts | 317° |
| 2026-05-08 04:03 | 11.37816 | 124.99234 | 4919 ft | 268 kts | 317° |
| 2026-05-08 04:03 | 11.40478 | 124.96587 | 6387 ft | 269 kts | 316° |
| 2026-05-08 04:03 | 11.41806 | 124.95272 | 7104 ft | 271 kts | 316° |
| 2026-05-08 04:04 | 11.43158 | 124.93934 | 7806 ft | 273 kts | 316° |
| 2026-05-08 04:04 | 11.44528 | 124.92578 | 8499 ft | 275 kts | 316° |
| 2026-05-08 04:04 | 11.45889 | 124.91233 | 9162 ft | 278 kts | 315° |
| 2026-05-08 04:04 | 11.47279 | 124.89859 | 9816 ft | 280 kts | 315° |
| 2026-05-08 04:05 | 11.48681 | 124.88472 | 10365 ft | 287 kts | 315° |
| 2026-05-08 04:05 | 11.50154 | 124.87010 | 10649 ft | 303 kts | 315° |
| 2026-05-08 04:05 | 11.51693 | 124.85485 | 10983 ft | 315 kts | 315° |
| 2026-05-08 04:05 | 11.53266 | 124.83932 | 11538 ft | 320 kts | 315° |
| 2026-05-08 04:06 | 11.54870 | 124.82348 | 12154 ft | 323 kts | 315° |
| 2026-05-08 04:06 | 11.56489 | 124.80760 | 12738 ft | 326 kts | 316° |
| 2026-05-08 04:06 | 11.58208 | 124.79247 | 13306 ft | 330 kts | 320° |
| 2026-05-08 04:06 | 11.60049 | 124.77853 | 13869 ft | 334 kts | 324° |
| 2026-05-08 04:07 | 11.61984 | 124.76535 | 14430 ft | 337 kts | 325° |
| 2026-05-08 04:07 | 11.63948 | 124.75218 | 14983 ft | 340 kts | 325° |
| 2026-05-08 04:07 | 11.65942 | 124.73882 | 15529 ft | 344 kts | 325° |
| 2026-05-08 04:07 | 11.67944 | 124.72538 | 16064 ft | 347 kts | 325° |
| 2026-05-08 04:08 | 11.69947 | 124.71191 | 16585 ft | 350 kts | 325° |
| 2026-05-08 04:08 | 11.71967 | 124.69833 | 17099 ft | 353 kts | 325° |
| 2026-05-08 04:08 | 11.74030 | 124.68444 | 17611 ft | 356 kts | 325° |
| 2026-05-08 04:08 | 11.76085 | 124.67059 | 18107 ft | 359 kts | 325° |
| 2026-05-08 04:09 | 11.78183 | 124.65646 | 18600 ft | 362 kts | 325° |
| 2026-05-08 04:09 | 11.80265 | 124.64243 | 19080 ft | 365 kts | 325° |
| 2026-05-08 04:09 | 11.82394 | 124.62807 | 19557 ft | 368 kts | 325° |
| 2026-05-08 04:09 | 11.84518 | 124.61375 | 20023 ft | 371 kts | 325° |
| 2026-05-08 04:10 | 11.86679 | 124.59918 | 20490 ft | 373 kts | 325° |
| 2026-05-08 04:10 | 11.88834 | 124.58464 | 20942 ft | 376 kts | 325° |
| 2026-05-08 04:10 | 11.91014 | 124.56993 | 21389 ft | 379 kts | 325° |
| 2026-05-08 04:10 | 11.93239 | 124.55492 | 21829 ft | 382 kts | 325° |
| 2026-05-08 04:11 | 11.95445 | 124.54002 | 22251 ft | 384 kts | 325° |
| 2026-05-08 04:11 | 11.97682 | 124.52492 | 22669 ft | 387 kts | 325° |
| 2026-05-08 04:11 | 11.99920 | 124.50980 | 23075 ft | 389 kts | 325° |
| 2026-05-08 04:11 | 12.02192 | 124.49446 | 23474 ft | 392 kts | 325° |
| 2026-05-08 04:12 | 12.04468 | 124.47908 | 23865 ft | 394 kts | 325° |
| 2026-05-08 04:12 | 12.06747 | 124.46368 | 24246 ft | 397 kts | 325° |
| 2026-05-08 04:12 | 12.09055 | 124.44808 | 24621 ft | 399 kts | 326° |
| 2026-05-08 04:12 | 12.11365 | 124.43249 | 24986 ft | 402 kts | 326° |
| 2026-05-08 04:13 | 12.13723 | 124.41664 | 25349 ft | 404 kts | 326° |
| 2026-05-08 04:13 | 12.16042 | 124.40103 | 25696 ft | 406 kts | 326° |
| 2026-05-08 04:13 | 12.18394 | 124.38516 | 26036 ft | 408 kts | 326° |
| 2026-05-08 04:13 | 12.20785 | 124.36900 | 26372 ft | 410 kts | 326° |
| 2026-05-08 04:14 | 12.23159 | 124.35294 | 26696 ft | 412 kts | 326° |
| 2026-05-08 04:14 | 12.25593 | 124.33638 | 27022 ft | 415 kts | 325° |
| 2026-05-08 04:14 | 12.28002 | 124.31992 | 27337 ft | 417 kts | 325° |
| 2026-05-08 04:14 | 12.30419 | 124.30343 | 27649 ft | 419 kts | 325° |
| 2026-05-08 04:15 | 12.32843 | 124.28696 | 27956 ft | 421 kts | 326° |
| 2026-05-08 04:15 | 12.35254 | 124.27061 | 28256 ft | 423 kts | 326° |
| 2026-05-08 04:15 | 12.37673 | 124.25358 | 28554 ft | 424 kts | 323° |
| 2026-05-08 04:15 | 12.40042 | 124.23543 | 28851 ft | 426 kts | 322° |
| 2026-05-08 04:16 | 12.42397 | 124.21708 | 29142 ft | 428 kts | 322° |
| 2026-05-08 04:16 | 12.44766 | 124.19854 | 29430 ft | 430 kts | 322° |
| 2026-05-08 04:16 | 12.47128 | 124.18006 | 29708 ft | 432 kts | 322° |
| 2026-05-08 04:16 | 12.49521 | 124.16135 | 29985 ft | 433 kts | 322° |
| 2026-05-08 04:17 | 12.51899 | 124.14275 | 30254 ft | 435 kts | 322° |
| 2026-05-08 04:17 | 12.54325 | 124.12379 | 30523 ft | 437 kts | 322° |
| 2026-05-08 04:17 | 12.56764 | 124.10473 | 30788 ft | 439 kts | 322° |
| 2026-05-08 04:17 | 12.59170 | 124.08591 | 31044 ft | 441 kts | 322° |
| 2026-05-08 04:18 | 12.61640 | 124.06661 | 31300 ft | 442 kts | 322° |
| 2026-05-08 04:18 | 12.64068 | 124.04762 | 31544 ft | 444 kts | 322° |
| 2026-05-08 04:18 | 12.66526 | 124.02839 | 31786 ft | 446 kts | 322° |
| 2026-05-08 04:18 | 12.69006 | 124.00898 | 31895 ft | 447 kts | 322° |
| 2026-05-08 04:19 | 12.73912 | 123.97059 | 31906 ft | 447 kts | 322° |
| 2026-05-08 04:19 | 12.78844 | 123.93198 | 31909 ft | 446 kts | 322° |
| 2026-05-08 04:20 | 12.83785 | 123.89326 | 31909 ft | 446 kts | 322° |
| 2026-05-08 04:20 | 12.88722 | 123.85456 | 31909 ft | 446 kts | 322° |
| 2026-05-08 04:21 | 12.93611 | 123.81621 | 31909 ft | 447 kts | 322° |
| 2026-05-08 04:21 | 12.98524 | 123.77766 | 31909 ft | 447 kts | 322° |
| 2026-05-08 04:22 | 13.03483 | 123.73871 | 31909 ft | 448 kts | 322° |
| 2026-05-08 04:22 | 13.08425 | 123.69987 | 31908 ft | 450 kts | 322° |
| 2026-05-08 04:23 | 13.13326 | 123.66003 | 31909 ft | 452 kts | 320° |
| 2026-05-08 04:23 | 13.18117 | 123.61873 | 31909 ft | 452 kts | 319° |
| 2026-05-08 04:24 | 13.22916 | 123.57708 | 31909 ft | 452 kts | 319° |
| 2026-05-08 04:24 | 13.27681 | 123.53568 | 31910 ft | 452 kts | 319° |
| 2026-05-08 04:25 | 13.32497 | 123.49382 | 31909 ft | 452 kts | 319° |
| 2026-05-08 04:25 | 13.37267 | 123.45232 | 31909 ft | 452 kts | 319° |
| 2026-05-08 04:26 | 13.42040 | 123.41076 | 31909 ft | 452 kts | 319° |
| 2026-05-08 04:26 | 13.46836 | 123.36896 | 31909 ft | 452 kts | 319° |
| 2026-05-08 04:27 | 13.51582 | 123.32722 | 31908 ft | 452 kts | 317° |
| 2026-05-08 04:27 | 13.55981 | 123.28105 | 31909 ft | 452 kts | 310° |
| 2026-05-08 04:28 | 13.59757 | 123.22945 | 31909 ft | 451 kts | 302° |
| 2026-05-08 04:28 | 13.62831 | 123.17368 | 31909 ft | 451 kts | 296° |
| 2026-05-08 04:29 | 13.65586 | 123.11580 | 31909 ft | 450 kts | 295° |
| 2026-05-08 04:29 | 13.68324 | 123.05806 | 31909 ft | 451 kts | 295° |
| 2026-05-08 04:30 | 13.71064 | 123.00050 | 31909 ft | 451 kts | 295° |
| 2026-05-08 04:30 | 13.73828 | 122.94247 | 31909 ft | 452 kts | 295° |
| 2026-05-08 04:31 | 13.76588 | 122.88450 | 31909 ft | 452 kts | 295° |
| 2026-05-08 04:31 | 13.79338 | 122.82671 | 31909 ft | 452 kts | 295° |
| 2026-05-08 04:32 | 13.82109 | 122.76844 | 31909 ft | 452 kts | 295° |
| 2026-05-08 04:32 | 13.84872 | 122.71030 | 31909 ft | 452 kts | 295° |
| 2026-05-08 04:33 | 13.87621 | 122.65242 | 31723 ft | 452 kts | 295° |
| 2026-05-08 04:33 | 13.88992 | 122.62351 | 31473 ft | 449 kts | 295° |
| 2026-05-08 04:33 | 13.90366 | 122.59457 | 31222 ft | 447 kts | 295° |
| 2026-05-08 04:34 | 13.91713 | 122.56616 | 30974 ft | 445 kts | 295° |
| 2026-05-08 04:34 | 13.93072 | 122.53747 | 30722 ft | 444 kts | 295° |
| 2026-05-08 04:34 | 13.94433 | 122.50876 | 30470 ft | 442 kts | 295° |
| 2026-05-08 04:34 | 13.95766 | 122.48061 | 30221 ft | 440 kts | 295° |
| 2026-05-08 04:35 | 13.97116 | 122.45207 | 29968 ft | 438 kts | 295° |
| 2026-05-08 04:35 | 13.98443 | 122.42405 | 29718 ft | 436 kts | 295° |
| 2026-05-08 04:35 | 13.99742 | 122.39661 | 29467 ft | 425 kts | 295° |
| 2026-05-08 04:35 | 14.01049 | 122.36957 | 29225 ft | 412 kts | 295° |
| 2026-05-08 04:36 | 14.02271 | 122.34382 | 29040 ft | 397 kts | 294° |